createdAt,value
2018-09-24T00:01:27.900Z,69.60
2018-09-24T00:03:56.540Z,69.50
2018-09-24T00:06:25.612Z,69.30
2018-09-24T00:08:54.227Z,69.40
2018-09-24T00:11:22.808Z,69.10
2018-09-24T00:13:51.278Z,68.70
2018-09-24T00:16:19.896Z,68.20
2018-09-24T00:18:48.362Z,68.20
2018-09-24T00:21:16.908Z,68.00
2018-09-24T00:23:45.338Z,68.20
2018-09-24T00:26:13.927Z,68.40
2018-09-24T00:28:42.428Z,68.40
2018-09-24T00:31:10.925Z,68.30
2018-09-24T00:33:39.824Z,68.60
2018-09-24T00:36:08.309Z,68.60
2018-09-24T00:38:36.847Z,68.40
2018-09-24T00:41:05.344Z,68.30
2018-09-24T00:43:33.832Z,68.10
2018-09-24T00:46:02.741Z,67.90
2018-09-24T00:48:31.340Z,67.60
2018-09-24T00:50:59.857Z,67.50
2018-09-24T00:53:28.384Z,67.50
2018-09-24T00:55:56.958Z,67.30
2018-09-24T00:58:25.636Z,67.50
2018-09-24T01:00:54.352Z,67.30
2018-09-24T01:03:22.917Z,66.80
2018-09-24T01:05:51.491Z,66.80
2018-09-24T01:08:19.982Z,67.30
2018-09-24T01:10:48.627Z,67.50
2018-09-24T01:13:17.567Z,67.10
2018-09-24T01:15:46.132Z,67.10
2018-09-24T01:18:14.704Z,67.00
2018-09-24T01:20:43.236Z,66.90
2018-09-24T01:23:11.765Z,67.00
2018-09-24T01:25:40.468Z,66.90
2018-09-24T01:28:09.064Z,66.90
2018-09-24T01:30:37.843Z,66.80
2018-09-24T01:33:06.864Z,66.70
2018-09-24T01:35:35.750Z,66.60
2018-09-24T01:38:04.488Z,66.60
2018-09-24T01:40:33.502Z,67.70
2018-09-24T01:43:02.593Z,66.60
2018-09-24T01:45:31.466Z,66.60
2018-09-24T01:48:00.157Z,66.60
2018-09-24T01:50:28.738Z,66.60
2018-09-24T01:53:02.115Z,66.60
2018-09-24T01:55:30.861Z,66.50
2018-09-24T01:57:59.400Z,66.60
2018-09-24T02:00:28.394Z,66.80
2018-09-24T02:02:56.920Z,66.60
2018-09-24T02:05:25.813Z,66.60
2018-09-24T02:07:54.513Z,66.70
2018-09-24T02:10:24.889Z,66.80
2018-09-24T02:12:58.100Z,66.90
2018-09-24T02:15:31.699Z,67.00
2018-09-24T02:18:00.285Z,67.00
2018-09-24T02:20:29.426Z,67.10
2018-09-24T02:22:58.210Z,66.90
2018-09-24T02:25:27.373Z,66.70
2018-09-24T02:27:56.090Z,66.80
2018-09-24T02:30:24.685Z,67.00
2018-09-24T02:32:53.319Z,67.00
2018-09-24T02:35:21.943Z,66.80
2018-09-24T02:37:50.987Z,66.70
2018-09-24T02:40:22.553Z,66.80
2018-09-24T02:42:51.246Z,66.90
2018-09-24T02:45:20.068Z,66.70
2018-09-24T02:47:49.153Z,66.90
2018-09-24T02:50:17.676Z,66.90
2018-09-24T02:52:46.189Z,66.80
2018-09-24T02:55:16.788Z,66.40
2018-09-24T02:57:45.609Z,66.50
2018-09-24T03:00:20.976Z,66.50
2018-09-24T03:02:49.874Z,66.20
2018-09-24T03:05:18.377Z,66.10
2018-09-24T03:07:47.344Z,66.30
2018-09-24T03:10:16.253Z,65.60
2018-09-24T03:12:48.359Z,66.00
2018-09-24T03:15:16.897Z,66.20
2018-09-24T03:17:45.482Z,65.90
2018-09-24T03:20:14.128Z,65.80
2018-09-24T03:22:42.667Z,66.10
2018-09-24T03:25:16.505Z,66.20
2018-09-24T03:27:45.496Z,65.90
2018-09-24T03:30:14.113Z,65.80
2018-09-24T03:32:42.709Z,65.60
2018-09-24T03:35:11.230Z,65.80
2018-09-24T03:37:40.278Z,65.60
2018-09-24T03:40:08.850Z,66.00
2018-09-24T03:42:37.538Z,65.80
2018-09-24T03:45:06.116Z,65.70
2018-09-24T03:47:35.218Z,65.60
2018-09-24T03:50:04.001Z,65.40
2018-09-24T03:52:32.503Z,65.40
2018-09-24T03:55:01.355Z,65.70
2018-09-24T03:57:30.024Z,66.40
2018-09-24T03:59:58.989Z,65.40
2018-09-24T04:02:27.803Z,65.30
2018-09-24T04:05:01.632Z,65.30
2018-09-24T04:07:35.356Z,65.20
2018-09-24T04:10:09.352Z,65.10
2018-09-24T04:12:43.220Z,65.20
2018-09-24T04:15:17.774Z,64.50
2018-09-24T04:17:51.481Z,64.70
2018-09-24T04:20:25.340Z,64.70
2018-09-24T04:23:00.351Z,64.90
2018-09-24T04:25:34.386Z,65.00
2018-09-24T04:28:08.283Z,65.10
2018-09-24T04:30:42.286Z,65.00
2018-09-24T04:33:16.539Z,65.20
2018-09-24T04:35:50.559Z,65.20
2018-09-24T04:38:24.594Z,65.00
2018-09-24T04:40:58.389Z,65.00
2018-09-24T04:43:32.792Z,65.20
2018-09-24T04:46:07.139Z,65.20
2018-09-24T04:48:41.183Z,65.10
2018-09-24T04:51:15.895Z,65.00
2018-09-24T04:53:49.874Z,65.20
2018-09-24T04:56:24.312Z,65.40
2018-09-24T04:58:58.200Z,65.60
2018-09-24T05:01:32.082Z,65.30
2018-09-24T05:04:06.079Z,65.10
2018-09-24T05:06:40.051Z,64.80
2018-09-24T05:09:14.263Z,64.50
2018-09-24T05:11:48.230Z,64.20
2018-09-24T05:14:22.125Z,64.40
2018-09-24T05:16:56.159Z,64.50
2018-09-24T05:19:30.033Z,64.40
2018-09-24T05:22:04.040Z,63.90
2018-09-24T05:24:38.372Z,64.10
2018-09-24T05:27:12.454Z,64.10
2018-09-24T05:29:46.286Z,63.70
2018-09-24T05:32:20.145Z,64.30
2018-09-24T05:34:54.454Z,64.10
2018-09-24T05:37:28.383Z,63.70
2018-09-24T05:40:02.568Z,64.40
2018-09-24T05:42:36.509Z,64.10
2018-09-24T05:45:10.778Z,64.50
2018-09-24T05:47:44.746Z,64.40
2018-09-24T05:50:18.595Z,64.20
2018-09-24T05:52:52.428Z,64.30
2018-09-24T05:55:26.411Z,64.40
2018-09-24T05:58:00.136Z,64.60
2018-09-24T06:00:34.039Z,64.60
2018-09-24T06:03:08.434Z,64.50
2018-09-24T06:05:42.423Z,64.50
2018-09-24T06:08:16.218Z,64.50
2018-09-24T06:10:50.557Z,64.60
2018-09-24T06:13:24.461Z,64.30
2018-09-24T06:15:58.388Z,64.30
2018-09-24T06:18:32.534Z,64.20
2018-09-24T06:21:06.463Z,64.20
2018-09-24T06:23:40.371Z,64.10
2018-09-24T06:26:14.283Z,64.10
2018-09-24T06:28:48.041Z,64.00
2018-09-24T06:31:22.065Z,64.20
2018-09-24T06:34:02.950Z,64.10
2018-09-24T06:36:36.925Z,64.10
2018-09-24T06:39:13.026Z,63.80
2018-09-24T06:41:47.098Z,63.50
2018-09-24T06:44:20.903Z,64.10
2018-09-24T06:46:54.693Z,63.60
2018-09-24T06:49:28.596Z,63.20
2018-09-24T06:52:02.558Z,63.20
2018-09-24T06:54:37.092Z,62.90
2018-09-24T06:57:11.428Z,63.10
2018-09-24T06:59:47.008Z,63.20
2018-09-24T07:02:20.680Z,62.60
2018-09-24T07:04:54.715Z,63.30
2018-09-24T07:07:28.672Z,62.80
2018-09-24T07:10:02.580Z,62.50
2018-09-24T07:12:36.977Z,62.20
2018-09-24T07:15:10.966Z,62.30
2018-09-24T07:17:45.073Z,62.50
2018-09-24T07:20:18.941Z,63.40
2018-09-24T07:22:53.066Z,62.00
2018-09-24T07:25:27.151Z,62.10
2018-09-24T07:28:01.286Z,62.20
2018-09-24T07:30:34.991Z,62.10
2018-09-24T07:33:09.170Z,61.70
2018-09-24T07:35:43.000Z,62.50
2018-09-24T07:38:17.118Z,61.90
2018-09-24T07:40:51.062Z,61.40
2018-09-24T07:43:25.271Z,61.30
2018-09-24T07:45:59.213Z,61.00
2018-09-24T07:48:32.985Z,60.50
2018-09-24T07:51:06.770Z,61.30
2018-09-24T07:53:40.693Z,59.90
2018-09-24T07:56:14.608Z,60.30
2018-09-24T07:58:48.600Z,60.30
2018-09-24T08:01:23.021Z,59.70
2018-09-24T08:03:57.025Z,59.80
2018-09-24T08:06:30.996Z,60.20
2018-09-24T08:09:06.468Z,60.40
2018-09-24T08:11:40.308Z,60.00
2018-09-24T08:14:14.363Z,59.50
2018-09-24T08:16:48.122Z,59.60
2018-09-24T08:19:21.909Z,60.00
2018-09-24T08:21:55.766Z,59.90
2018-09-24T08:24:29.618Z,59.10
2018-09-24T08:27:03.506Z,59.00
2018-09-24T08:29:37.520Z,58.10
2018-09-24T08:32:12.206Z,57.90
2018-09-24T08:34:47.245Z,57.90
2018-09-24T08:37:22.241Z,57.80
2018-09-24T08:39:56.540Z,57.80
2018-09-24T08:42:30.434Z,57.00
2018-09-24T08:45:05.558Z,56.80
2018-09-24T08:47:39.997Z,56.20
2018-09-24T08:50:14.803Z,56.80
2018-09-24T08:52:49.440Z,56.80
2018-09-24T08:55:23.578Z,56.20
2018-09-24T08:57:58.002Z,56.50
2018-09-24T09:00:32.147Z,56.60
2018-09-24T09:03:09.524Z,56.10
2018-09-24T09:05:44.145Z,55.80
2018-09-24T09:08:20.020Z,55.50
2018-09-24T09:10:54.498Z,56.20
2018-09-24T09:13:29.360Z,56.20
2018-09-24T09:16:03.549Z,55.80
2018-09-24T09:18:39.019Z,56.00
2018-09-24T09:21:14.356Z,56.00
2018-09-24T09:23:49.923Z,55.50
2018-09-24T09:26:28.064Z,55.20
2018-09-24T09:29:05.773Z,54.60
2018-09-24T09:31:40.212Z,52.90
2018-09-24T09:34:14.519Z,53.90
2018-09-24T09:36:51.438Z,53.80
2018-09-24T09:39:25.857Z,54.20
2018-09-24T09:42:01.761Z,53.80
2018-09-24T09:44:37.017Z,53.60
2018-09-24T09:47:13.710Z,52.50
2018-09-24T09:49:50.334Z,52.90
2018-09-24T09:52:26.125Z,52.50
2018-09-24T09:55:01.371Z,53.00
2018-09-24T09:57:37.423Z,53.30
2018-09-24T10:00:11.812Z,53.20
2018-09-24T10:02:46.308Z,53.40
2018-09-24T10:05:20.692Z,53.30
2018-09-24T10:07:54.652Z,53.20
2018-09-24T10:10:29.085Z,52.70
2018-09-24T10:13:03.287Z,52.00
2018-09-24T10:15:37.727Z,52.40
2018-09-24T10:18:13.226Z,52.00
2018-09-24T10:20:47.814Z,51.70
2018-09-24T10:23:22.696Z,52.20
2018-09-24T10:25:58.124Z,53.00
2018-09-24T10:28:32.678Z,51.80
2018-09-24T10:31:06.466Z,51.50
2018-09-24T10:33:40.925Z,51.70
2018-09-24T10:36:14.777Z,52.10
2018-09-24T10:38:48.753Z,51.60
2018-09-24T10:41:22.509Z,51.30
2018-09-24T10:43:56.651Z,51.00
2018-09-24T10:46:30.561Z,50.60
2018-09-24T10:49:05.300Z,50.90
2018-09-24T10:51:40.363Z,50.40
2018-09-24T10:54:14.407Z,50.00
2018-09-24T10:56:48.501Z,50.60
2018-09-24T10:59:23.157Z,50.70
2018-09-24T11:01:57.362Z,50.40
2018-09-24T11:04:31.884Z,50.10
2018-09-24T11:07:05.844Z,49.80
2018-09-24T11:09:39.877Z,50.40
2018-09-24T11:12:14.068Z,49.90
2018-09-24T11:14:47.972Z,50.00
2018-09-24T11:17:22.528Z,50.50
2018-09-24T11:19:56.425Z,50.70
2018-09-24T11:22:30.492Z,49.90
2018-09-24T11:25:05.691Z,50.20
2018-09-24T11:27:40.520Z,50.30
2018-09-24T11:30:15.615Z,50.50
2018-09-24T11:32:49.720Z,51.10
2018-09-24T11:35:23.862Z,51.10
2018-09-24T11:37:57.983Z,49.90
2018-09-24T11:40:33.438Z,49.60
2018-09-24T11:43:08.459Z,49.30
2018-09-24T11:45:42.513Z,49.40
2018-09-24T11:48:16.396Z,49.40
2018-09-24T11:50:50.671Z,49.70
2018-09-24T11:53:25.324Z,49.20
2018-09-24T11:55:59.808Z,48.50
2018-09-24T11:58:35.374Z,48.90
2018-09-24T12:01:09.500Z,48.00
2018-09-24T12:03:43.586Z,47.20
2018-09-24T12:06:19.139Z,47.90
2018-09-24T12:08:54.042Z,48.10
2018-09-24T12:11:28.268Z,49.30
2018-09-24T12:14:02.241Z,51.60
2018-09-24T12:16:36.355Z,54.00
2018-09-24T12:19:10.689Z,54.80
2018-09-24T12:21:44.920Z,55.70
2018-09-24T12:24:19.067Z,55.50
2018-09-24T12:26:52.984Z,56.20
2018-09-24T12:29:26.925Z,55.40
2018-09-24T12:32:00.999Z,55.70
2018-09-24T12:34:35.932Z,53.80
2018-09-24T12:37:09.943Z,54.30
2018-09-24T12:39:44.362Z,54.20
2018-09-24T12:42:18.350Z,54.40
2018-09-24T12:44:53.161Z,54.00
2018-09-24T12:47:27.702Z,53.80
2018-09-24T12:50:02.610Z,53.10
2018-09-24T12:52:37.865Z,53.40
2018-09-24T12:55:12.262Z,53.10
2018-09-24T12:57:46.250Z,53.10
2018-09-24T13:00:20.358Z,52.70
2018-09-24T13:02:55.119Z,51.70
2018-09-24T13:05:29.070Z,52.10
2018-09-24T13:08:03.557Z,51.30
2018-09-24T13:10:37.711Z,51.50
2018-09-24T13:13:12.068Z,51.00
2018-09-24T13:15:46.241Z,51.90
2018-09-24T13:18:20.253Z,50.70
2018-09-24T13:20:54.132Z,50.40
2018-09-24T13:23:28.483Z,49.40
2018-09-24T13:26:02.555Z,50.00
2018-09-24T13:28:36.488Z,50.10
2018-09-24T13:31:10.993Z,49.20
2018-09-24T13:33:45.122Z,49.70
2018-09-24T13:36:19.144Z,49.40
2018-09-24T13:38:53.709Z,49.50
2018-09-24T13:41:28.367Z,49.30
2018-09-24T13:44:02.978Z,49.10
2018-09-24T13:46:36.921Z,48.50
2018-09-24T13:49:11.022Z,48.80
2018-09-24T13:51:46.717Z,48.50
2018-09-24T13:54:21.329Z,48.50
2018-09-24T13:56:55.855Z,47.90
2018-09-24T13:59:30.338Z,47.70
2018-09-24T14:02:04.245Z,48.20
2018-09-24T14:04:39.296Z,46.70
2018-09-24T14:07:15.148Z,45.20
2018-09-24T14:09:49.374Z,46.10
2018-09-24T14:12:23.915Z,46.10
2018-09-24T14:14:58.642Z,46.00
2018-09-24T14:17:33.226Z,46.30
2018-09-24T14:20:07.142Z,46.60
2018-09-24T14:22:41.338Z,47.40
2018-09-24T14:25:16.217Z,46.60
2018-09-24T14:27:52.662Z,46.00
2018-09-24T14:30:27.366Z,46.30
2018-09-24T14:33:02.102Z,46.90
2018-09-24T14:35:36.896Z,46.60
2018-09-24T14:38:11.522Z,46.00
2018-09-24T14:40:46.360Z,45.40
2018-09-24T14:43:21.833Z,45.10
2018-09-24T14:45:56.405Z,45.00
2018-09-24T14:48:30.871Z,46.20
2018-09-24T14:51:05.473Z,46.50
2018-09-24T14:53:40.315Z,47.00
2018-09-24T14:56:15.584Z,47.50
2018-09-24T14:58:50.124Z,47.70
2018-09-24T15:01:24.688Z,48.30
2018-09-24T15:03:59.609Z,48.80
2018-09-24T15:06:35.721Z,48.50
2018-09-24T15:09:12.502Z,48.20
2018-09-24T15:11:47.169Z,47.70
2018-09-24T15:14:21.895Z,47.70
2018-09-24T15:16:56.632Z,47.40
2018-09-24T15:19:31.724Z,48.00
2018-09-24T15:22:06.764Z,48.20
2018-09-24T15:24:41.466Z,48.40
2018-09-24T15:27:16.764Z,48.60
2018-09-24T15:29:51.517Z,48.70
2018-09-24T15:32:26.211Z,48.90
2018-09-24T15:35:02.144Z,48.90
2018-09-24T15:37:36.568Z,49.00
2018-09-24T15:40:11.814Z,49.40
2018-09-24T15:42:46.205Z,49.30
2018-09-24T15:45:20.521Z,49.50
2018-09-24T15:47:54.983Z,51.10
2018-09-24T15:50:29.949Z,52.70
2018-09-24T15:53:05.333Z,53.80
2018-09-24T15:55:40.290Z,54.50
2018-09-24T15:58:14.706Z,54.90
2018-09-24T16:00:49.104Z,55.00
2018-09-24T16:03:23.700Z,55.40
2018-09-24T16:05:58.972Z,55.30
2018-09-24T16:08:34.477Z,55.50
2018-09-24T16:11:09.121Z,55.80
2018-09-24T16:13:44.155Z,55.90
2018-09-24T16:16:18.542Z,56.00
2018-09-24T16:18:52.710Z,55.90
2018-09-24T16:21:27.306Z,55.80
2018-09-24T16:24:01.639Z,56.10
2018-09-24T16:26:36.556Z,56.20
2018-09-24T16:29:11.495Z,56.40
2018-09-24T16:31:46.982Z,56.30
2018-09-24T16:34:21.503Z,56.50
2018-09-24T16:36:56.891Z,56.60
2018-09-24T16:39:31.830Z,57.50
2018-09-24T16:42:06.154Z,57.60
2018-09-24T16:44:40.132Z,58.00
2018-09-24T16:47:14.943Z,58.50
2018-09-24T16:49:49.469Z,59.10
2018-09-24T16:52:23.617Z,59.30
2018-09-24T16:54:57.972Z,59.40
2018-09-24T16:57:31.937Z,59.40
2018-09-24T17:00:07.011Z,60.30
2018-09-24T17:02:41.733Z,59.50
2018-09-24T17:05:17.062Z,60.30
2018-09-24T17:07:51.246Z,60.40
2018-09-24T17:10:27.572Z,60.80
2018-09-24T17:13:01.981Z,60.90
2018-09-24T17:15:36.311Z,60.90
2018-09-24T17:18:10.346Z,61.50
2018-09-24T17:20:44.183Z,61.50
2018-09-24T17:23:18.289Z,61.40
2018-09-24T17:25:53.039Z,61.60
2018-09-24T17:28:27.088Z,61.60
2018-09-24T17:31:01.186Z,61.80
2018-09-24T17:33:35.155Z,61.80
2018-09-24T17:36:09.151Z,62.10
2018-09-24T17:38:42.964Z,62.40
2018-09-24T17:41:16.923Z,62.80
2018-09-24T17:43:51.137Z,63.30
2018-09-24T17:46:25.148Z,63.30
2018-09-24T17:48:59.590Z,63.70
2018-09-24T17:51:34.275Z,63.70
2018-09-24T17:54:08.622Z,64.10
2018-09-24T17:56:43.199Z,65.00
2018-09-24T17:59:17.326Z,64.10
2018-09-24T18:01:51.477Z,64.50
2018-09-24T18:04:26.365Z,64.40
2018-09-24T18:07:00.374Z,64.50
2018-09-24T18:09:34.295Z,64.80
2018-09-24T18:12:08.567Z,64.90
2018-09-24T18:14:42.749Z,65.30
2018-09-24T18:17:16.859Z,65.10
2018-09-24T18:19:50.926Z,65.50
2018-09-24T18:22:25.079Z,65.50
2018-09-24T18:24:59.102Z,65.90
2018-09-24T18:27:33.596Z,65.80
2018-09-24T18:30:07.800Z,66.10
2018-09-24T18:32:42.000Z,66.20
2018-09-24T18:35:16.533Z,66.00
2018-09-24T18:37:50.649Z,65.80
2018-09-24T18:40:25.156Z,65.90
2018-09-24T18:42:59.035Z,66.10
2018-09-24T18:45:33.373Z,66.00
2018-09-24T18:48:07.579Z,66.00
2018-09-24T18:50:42.388Z,66.30
2018-09-24T18:53:16.404Z,66.00
2018-09-24T18:55:50.450Z,66.00
2018-09-24T18:58:24.468Z,65.60
2018-09-24T19:00:58.656Z,65.60
2018-09-24T19:03:32.552Z,65.40
2018-09-24T19:06:06.805Z,65.40
2018-09-24T19:08:40.730Z,65.30
2018-09-24T19:11:15.285Z,65.30
2018-09-24T19:13:49.304Z,65.10
2018-09-24T19:16:23.275Z,65.20
2018-09-24T19:18:57.320Z,65.30
2018-09-24T19:21:31.546Z,65.30
2018-09-24T19:24:05.598Z,65.20
2018-09-24T19:26:39.754Z,65.20
2018-09-24T19:29:13.763Z,65.20
2018-09-24T19:31:48.480Z,65.20
2018-09-24T19:34:22.588Z,65.00
2018-09-24T19:36:57.030Z,64.90
2018-09-24T19:39:31.024Z,64.80
2018-09-24T19:42:05.273Z,64.80
2018-09-24T19:44:39.507Z,64.70
2018-09-24T19:47:13.410Z,64.80
2018-09-24T19:49:47.422Z,64.70
2018-09-24T19:52:21.269Z,64.70
2018-09-24T19:54:55.387Z,64.60
2018-09-24T19:57:29.880Z,64.70
2018-09-24T20:00:03.902Z,64.40
2018-09-24T20:02:38.318Z,64.50
2018-09-24T20:05:12.181Z,64.50
2018-09-24T20:07:46.162Z,64.50
2018-09-24T20:10:20.353Z,64.60
2018-09-24T20:12:54.286Z,65.30
2018-09-24T20:15:28.664Z,64.30
2018-09-24T20:18:02.786Z,64.40
2018-09-24T20:20:38.088Z,64.20
2018-09-24T20:23:12.354Z,64.60
2018-09-24T20:25:46.778Z,64.50
2018-09-24T20:28:20.548Z,64.50
2018-09-24T20:30:54.449Z,64.50
2018-09-24T20:33:28.619Z,64.60
2018-09-24T20:36:02.450Z,64.50
2018-09-24T20:38:36.394Z,64.60
2018-09-24T20:41:10.182Z,64.50
2018-09-24T20:43:44.679Z,64.40
2018-09-24T20:46:18.541Z,64.30
2018-09-24T20:48:52.345Z,64.50
2018-09-24T20:51:26.346Z,64.40
2018-09-24T20:54:00.346Z,64.20
2018-09-24T20:56:34.633Z,64.30
2018-09-24T20:59:08.988Z,64.10
2018-09-24T21:01:42.940Z,64.00
2018-09-24T21:04:16.906Z,63.90
2018-09-24T21:06:50.666Z,63.90
2018-09-24T21:09:24.519Z,63.60
2018-09-24T21:11:58.474Z,63.70
2018-09-24T21:14:32.365Z,63.90
2018-09-24T21:17:06.098Z,64.20
2018-09-24T21:19:39.938Z,64.10
2018-09-24T21:22:13.934Z,64.00
2018-09-24T21:24:48.488Z,64.00
2018-09-24T21:27:23.251Z,64.10
2018-09-24T21:29:56.992Z,63.90
2018-09-24T21:32:30.790Z,64.60
2018-09-24T21:35:04.740Z,63.80
2018-09-24T21:37:38.832Z,64.10
2018-09-24T21:40:13.050Z,64.10
2018-09-24T21:42:47.142Z,64.30
2018-09-24T21:45:21.042Z,64.50
2018-09-24T21:47:55.013Z,64.60
2018-09-24T21:50:28.964Z,64.80
2018-09-24T21:53:03.231Z,64.90
2018-09-24T21:55:37.255Z,64.60
2018-09-24T21:58:11.251Z,64.70
2018-09-24T22:00:45.247Z,65.00
2018-09-24T22:03:19.163Z,65.30
2018-09-24T22:05:52.956Z,65.30
2018-09-24T22:08:26.801Z,65.30
2018-09-24T22:11:00.770Z,65.30
2018-09-24T22:13:34.749Z,65.50
2018-09-24T22:16:08.785Z,65.50
2018-09-24T22:18:42.541Z,65.30
2018-09-24T22:21:16.337Z,65.60
2018-09-24T22:23:50.281Z,65.30
2018-09-24T22:26:24.201Z,66.50
2018-09-24T22:28:58.260Z,65.60
2018-09-24T22:31:32.093Z,65.50
2018-09-24T22:34:06.067Z,65.30
2018-09-24T22:36:39.927Z,65.30
2018-09-24T22:39:14.370Z,65.30
2018-09-24T22:41:48.524Z,65.10
2018-09-24T22:44:22.565Z,65.20
2018-09-24T22:46:56.321Z,65.10
2018-09-24T22:49:30.081Z,65.20
2018-09-24T22:52:04.076Z,65.20
2018-09-24T22:54:38.306Z,65.30
2018-09-24T22:57:12.255Z,65.40
2018-09-24T22:59:46.148Z,65.50
2018-09-24T23:02:20.048Z,65.50
2018-09-24T23:04:54.439Z,65.30
2018-09-24T23:07:28.517Z,65.50
2018-09-24T23:10:02.327Z,65.50
2018-09-24T23:12:36.214Z,65.60
2018-09-24T23:15:10.489Z,65.80
2018-09-24T23:17:44.556Z,65.70
2018-09-24T23:20:18.576Z,65.50
2018-09-24T23:22:52.584Z,65.40
2018-09-24T23:25:26.351Z,65.50
2018-09-24T23:28:00.186Z,65.40
2018-09-24T23:30:33.911Z,65.40
2018-09-24T23:33:07.720Z,65.50
2018-09-24T23:35:41.700Z,65.90
2018-09-24T23:38:15.616Z,66.10
2018-09-24T23:40:49.629Z,66.10
2018-09-24T23:43:23.468Z,66.10
2018-09-24T23:45:57.232Z,66.00
2018-09-24T23:48:31.171Z,66.10
2018-09-24T23:51:04.963Z,66.10
2018-09-24T23:53:38.943Z,66.10
2018-09-24T23:56:12.907Z,66.10
2018-09-24T23:58:46.890Z,66.20
